createdAt,value
2018-07-05T00:02:45.242Z,17.32
2018-07-05T00:05:32.314Z,17.27
2018-07-05T00:08:19.443Z,17.20
2018-07-05T00:11:06.356Z,17.22
2018-07-05T00:13:53.329Z,17.22
2018-07-05T00:16:40.503Z,17.21
2018-07-05T00:19:27.326Z,17.15
2018-07-05T00:22:14.315Z,16.96
2018-07-05T00:25:01.224Z,16.85
2018-07-05T00:27:48.020Z,16.75
2018-07-05T00:30:34.815Z,16.65
2018-07-05T00:33:22.009Z,16.52
2018-07-05T00:36:09.053Z,16.44
2018-07-05T00:38:56.035Z,16.39
2018-07-05T00:41:43.430Z,16.43
2018-07-05T00:44:30.190Z,16.40
2018-07-05T00:47:16.965Z,16.32
2018-07-05T00:50:03.861Z,16.28
2018-07-05T00:52:50.656Z,16.30
2018-07-05T00:55:37.497Z,16.19
2018-07-05T00:58:24.325Z,16.17
2018-07-05T01:01:12.021Z,16.11
2018-07-05T01:03:58.842Z,16.03
2018-07-05T01:06:45.732Z,15.94
2018-07-05T01:09:32.433Z,15.86
2018-07-05T01:12:19.117Z,15.76
2018-07-05T01:15:05.825Z,15.68
2018-07-05T01:17:52.817Z,15.66
2018-07-05T01:20:39.584Z,15.69
2018-07-05T01:23:26.325Z,15.73
2018-07-05T01:26:13.339Z,15.68
2018-07-05T01:29:00.072Z,15.59
2018-07-05T01:31:46.861Z,15.53
2018-07-05T01:34:33.855Z,15.45
2018-07-05T01:37:21.141Z,15.37
2018-07-05T01:40:08.280Z,15.24
2018-07-05T01:42:55.277Z,15.18
2018-07-05T01:45:42.321Z,15.07
2018-07-05T01:48:29.265Z,14.95
2018-07-05T01:51:16.157Z,14.81
2018-07-05T01:54:03.070Z,14.77
2018-07-05T01:56:50.005Z,14.71
2018-07-05T01:59:36.975Z,14.63
2018-07-05T02:02:23.953Z,14.59
2018-07-05T02:05:10.624Z,14.51
2018-07-05T02:07:57.447Z,14.46
2018-07-05T02:10:44.488Z,14.38
2018-07-05T02:13:31.509Z,14.31
2018-07-05T02:16:18.273Z,14.26
2018-07-05T02:19:05.087Z,14.20
2018-07-05T02:21:51.889Z,14.12
2018-07-05T02:24:38.737Z,14.08
2018-07-05T02:27:26.658Z,14.12
2018-07-05T02:30:13.413Z,14.11
2018-07-05T02:33:00.481Z,14.14
2018-07-05T02:35:47.280Z,14.15
2018-07-05T02:38:34.115Z,14.30
2018-07-05T02:41:20.941Z,14.32
2018-07-05T02:44:07.701Z,14.21
2018-07-05T02:46:54.446Z,14.12
2018-07-05T02:49:41.746Z,14.05
2018-07-05T02:52:28.773Z,14.01
2018-07-05T02:55:15.987Z,13.98
2018-07-05T02:58:03.097Z,13.97
2018-07-05T03:00:50.673Z,13.96
2018-07-05T03:03:37.624Z,13.97
2018-07-05T03:06:24.514Z,13.99
2018-07-05T03:09:11.335Z,14.04
2018-07-05T03:11:58.305Z,14.08
2018-07-05T03:14:45.140Z,14.12
2018-07-05T03:17:31.960Z,14.15
2018-07-05T03:20:18.658Z,14.23
2018-07-05T03:23:05.484Z,14.31
2018-07-05T03:25:52.442Z,14.40
2018-07-05T03:28:39.247Z,14.56
2018-07-05T03:31:26.209Z,14.68
2018-07-05T03:34:13.103Z,14.85
2018-07-05T03:37:00.106Z,14.96
2018-07-05T03:39:46.914Z,15.06
2018-07-05T03:42:34.014Z,15.18
2018-07-05T03:45:20.845Z,15.30
2018-07-05T03:48:07.605Z,15.52
2018-07-05T03:50:54.562Z,15.81
2018-07-05T03:53:42.730Z,16.01
2018-07-05T03:56:29.501Z,16.23
2018-07-05T03:59:16.473Z,16.41
2018-07-05T04:02:03.326Z,16.61
2018-07-05T04:04:50.285Z,16.76
2018-07-05T04:07:37.070Z,16.89
2018-07-05T04:10:23.888Z,17.06
2018-07-05T04:13:10.809Z,17.29
2018-07-05T04:15:57.610Z,17.61
2018-07-05T04:18:44.512Z,17.86
2018-07-05T04:21:31.302Z,18.13
2018-07-05T04:24:18.218Z,18.28
2018-07-05T04:27:05.261Z,18.44
2018-07-05T04:29:52.124Z,18.64
2018-07-05T04:32:38.874Z,18.88
2018-07-05T04:35:26.155Z,19.10
2018-07-05T04:38:13.296Z,19.33
2018-07-05T04:41:00.890Z,19.59
2018-07-05T04:43:47.925Z,19.86
2018-07-05T04:46:35.144Z,20.14
2018-07-05T04:49:22.125Z,20.44
2018-07-05T04:52:08.857Z,20.74
2018-07-05T04:54:55.677Z,20.97
2018-07-05T04:57:42.516Z,21.26
2018-07-05T05:00:29.234Z,21.72
2018-07-05T05:03:16.058Z,22.21
2018-07-05T05:06:02.921Z,22.95
2018-07-05T05:08:50.449Z,23.69
2018-07-05T05:11:38.105Z,24.26
2018-07-05T05:14:25.593Z,25.28
2018-07-05T05:17:13.041Z,26.81
2018-07-05T05:20:00.590Z,28.52
2018-07-05T05:22:48.171Z,30.25
2018-07-05T05:25:35.518Z,31.99
2018-07-05T05:28:23.071Z,33.40
2018-07-05T05:31:10.559Z,34.80
2018-07-05T05:33:58.057Z,35.55
2018-07-05T05:36:45.761Z,35.98
2018-07-05T05:39:32.985Z,36.99
2018-07-05T05:42:20.298Z,37.66
2018-07-05T05:45:07.573Z,37.64
2018-07-05T05:47:55.069Z,37.08
2018-07-05T05:50:42.023Z,37.90
2018-07-05T05:53:29.133Z,38.54
2018-07-05T05:56:18.536Z,39.54
2018-07-05T05:59:06.372Z,39.41
2018-07-05T06:01:53.691Z,39.79
2018-07-05T06:04:40.977Z,40.93
2018-07-05T06:07:29.217Z,42.29
2018-07-05T06:10:16.277Z,43.63
2018-07-05T06:13:03.757Z,44.80
2018-07-05T06:15:50.905Z,45.87
2018-07-05T06:18:38.499Z,46.73
2018-07-05T06:21:25.698Z,47.40
2018-07-05T06:24:13.009Z,48.01
2018-07-05T06:27:00.381Z,48.69
2018-07-05T06:29:47.825Z,49.47
2018-07-05T06:32:34.924Z,49.89
2018-07-05T06:35:24.731Z,50.33
2018-07-05T06:38:12.053Z,50.46
2018-07-05T06:40:59.436Z,50.33
2018-07-05T06:43:46.538Z,50.60
2018-07-05T06:46:33.622Z,51.03
2018-07-05T06:49:20.893Z,51.41
2018-07-05T06:52:08.253Z,51.68
2018-07-05T06:54:55.358Z,52.02
2018-07-05T06:57:42.641Z,52.15
2018-07-05T07:00:29.682Z,52.39
2018-07-05T07:03:16.761Z,52.55
2018-07-05T07:06:03.867Z,52.80
2018-07-05T07:08:50.887Z,52.53
2018-07-05T07:11:37.972Z,51.71
2018-07-05T07:14:25.101Z,51.16
2018-07-05T07:17:12.286Z,51.12
2018-07-05T07:19:59.429Z,51.65
2018-07-05T07:22:46.440Z,51.92
2018-07-05T07:25:33.601Z,51.55
2018-07-05T07:28:20.709Z,51.47
2018-07-05T07:31:07.857Z,52.18
2018-07-05T07:33:55.000Z,52.67
2018-07-05T07:36:42.096Z,53.24
2018-07-05T07:39:29.314Z,53.64
2018-07-05T07:42:03.990Z,53.98
2018-07-05T07:44:32.533Z,53.84
2018-07-05T07:47:01.103Z,53.56
2018-07-05T07:49:29.674Z,53.77
2018-07-05T07:51:58.214Z,54.09
2018-07-05T07:54:26.749Z,54.34
2018-07-05T07:56:55.281Z,54.53
2018-07-05T07:59:25.502Z,54.60
2018-07-05T08:01:54.075Z,54.56
2018-07-05T08:04:22.668Z,54.76
2018-07-05T08:06:51.223Z,54.48
2018-07-05T08:09:19.769Z,54.33
2018-07-05T08:11:48.346Z,53.92
2018-07-05T08:14:16.884Z,53.74
2018-07-05T08:16:45.421Z,53.75
2018-07-05T08:19:13.990Z,53.96
2018-07-05T08:21:42.617Z,53.93
2018-07-05T08:24:11.216Z,54.08
2018-07-05T08:26:39.775Z,54.37
2018-07-05T08:29:08.305Z,54.55
2018-07-05T08:31:36.825Z,54.40
2018-07-05T08:34:05.373Z,53.94
2018-07-05T08:36:33.976Z,54.14
2018-07-05T08:39:02.521Z,53.97
2018-07-05T08:41:31.070Z,53.83
2018-07-05T08:43:59.612Z,53.34
2018-07-05T08:46:28.193Z,52.65
2018-07-05T08:48:56.786Z,52.05
2018-07-05T08:51:25.317Z,51.18
2018-07-05T08:53:53.841Z,50.45
2018-07-05T08:56:22.369Z,50.87
2018-07-05T08:58:50.933Z,51.57
2018-07-05T09:01:19.591Z,52.46
2018-07-05T09:03:48.345Z,52.89
2018-07-05T09:06:17.240Z,52.26
2018-07-05T09:08:47.365Z,51.69
2018-07-05T09:11:15.893Z,51.65
2018-07-05T09:13:44.480Z,51.54
2018-07-05T09:16:13.103Z,51.68
2018-07-05T09:18:41.729Z,51.70
2018-07-05T09:21:10.250Z,51.58
2018-07-05T09:23:38.843Z,51.52
2018-07-05T09:26:07.645Z,50.35
2018-07-05T09:28:36.185Z,50.05
2018-07-05T09:31:04.821Z,49.07
2018-07-05T09:33:33.354Z,48.71
2018-07-05T09:36:01.886Z,48.27
2018-07-05T09:38:30.470Z,47.46
2018-07-05T09:40:59.123Z,46.48
2018-07-05T09:43:27.689Z,45.14
2018-07-05T09:45:56.221Z,44.32
2018-07-05T09:48:24.753Z,43.70
2018-07-05T09:50:53.316Z,42.87
2018-07-05T09:53:21.850Z,42.28
2018-07-05T09:55:50.488Z,41.80
2018-07-05T09:58:19.028Z,41.30
2018-07-05T10:00:49.403Z,40.86
2018-07-05T10:03:19.204Z,40.31
2018-07-05T10:05:47.821Z,39.89
2018-07-05T10:08:17.437Z,39.54
2018-07-05T10:10:45.968Z,39.30
2018-07-05T10:13:14.664Z,39.14
2018-07-05T10:15:43.339Z,39.06
2018-07-05T10:18:11.882Z,38.95
2018-07-05T10:20:40.418Z,38.81
2018-07-05T10:23:08.954Z,38.54
2018-07-05T10:25:37.804Z,38.30
2018-07-05T10:28:06.663Z,38.13
2018-07-05T10:30:47.789Z,37.96
2018-07-05T10:33:35.225Z,37.75
2018-07-05T10:36:10.275Z,37.31
2018-07-05T10:38:39.136Z,36.64
2018-07-05T10:41:20.409Z,36.31
2018-07-05T10:44:07.724Z,36.33
2018-07-05T10:46:55.090Z,36.21
2018-07-05T10:49:42.488Z,35.95
2018-07-05T10:52:29.983Z,35.46
2018-07-05T10:55:17.367Z,35.23
2018-07-05T10:58:05.069Z,35.13
2018-07-05T11:00:52.553Z,35.12
2018-07-05T11:03:39.934Z,34.97
2018-07-05T11:06:27.317Z,34.97
2018-07-05T11:09:14.748Z,35.14
2018-07-05T11:12:02.202Z,35.26
2018-07-05T11:14:49.715Z,35.27
2018-07-05T11:17:37.324Z,35.36
2018-07-05T11:20:24.967Z,35.48
2018-07-05T11:23:12.461Z,35.41
2018-07-05T11:25:59.849Z,35.49
2018-07-05T11:28:47.166Z,35.63
2018-07-05T11:31:34.447Z,35.60
2018-07-05T11:34:21.701Z,35.51
2018-07-05T11:37:09.134Z,35.27
2018-07-05T11:39:56.532Z,35.11
2018-07-05T11:42:44.096Z,34.85
2018-07-05T11:45:31.769Z,34.70
2018-07-05T11:48:19.151Z,34.59
2018-07-05T11:51:06.545Z,34.49
2018-07-05T11:53:54.018Z,34.45
2018-07-05T11:56:41.617Z,34.45
2018-07-05T11:59:29.009Z,34.52
2018-07-05T12:02:16.290Z,34.62
2018-07-05T12:05:03.537Z,34.76
2018-07-05T12:07:50.939Z,34.86
2018-07-05T12:10:38.343Z,34.97
2018-07-05T12:13:25.589Z,35.08
2018-07-05T12:16:13.085Z,35.17
2018-07-05T12:19:00.449Z,35.11
2018-07-05T12:21:47.704Z,34.99
2018-07-05T12:24:35.221Z,34.95
2018-07-05T12:27:22.752Z,34.97
2018-07-05T12:30:10.290Z,35.08
2018-07-05T12:32:57.618Z,35.13
2018-07-05T12:35:45.038Z,35.12
2018-07-05T12:38:32.458Z,35.05
2018-07-05T12:41:19.873Z,35.02
2018-07-05T12:44:07.285Z,34.98
2018-07-05T12:46:54.584Z,34.96
2018-07-05T12:49:41.890Z,35.01
2018-07-05T12:52:29.217Z,35.24
2018-07-05T12:55:16.658Z,35.63
2018-07-05T12:58:04.526Z,36.01
2018-07-05T13:00:52.074Z,36.21
2018-07-05T13:03:39.557Z,36.28
2018-07-05T13:06:26.652Z,36.07
2018-07-05T13:09:14.079Z,35.88
2018-07-05T13:12:01.392Z,35.64
2018-07-05T13:14:48.753Z,35.42
2018-07-05T13:17:36.317Z,35.32
2018-07-05T13:20:23.653Z,35.19
2018-07-05T13:23:11.122Z,35.10
2018-07-05T13:25:58.322Z,35.00
2018-07-05T13:28:45.640Z,34.86
2018-07-05T13:31:33.000Z,34.91
2018-07-05T13:34:20.221Z,34.99
2018-07-05T13:37:07.649Z,34.97
2018-07-05T13:39:55.180Z,34.94
2018-07-05T13:42:45.679Z,34.82
2018-07-05T13:45:33.073Z,34.67
2018-07-05T13:48:20.593Z,34.48
2018-07-05T13:51:08.255Z,34.40
2018-07-05T13:53:55.967Z,34.31
2018-07-05T13:56:43.329Z,34.28
2018-07-05T13:59:30.714Z,34.29
2018-07-05T14:02:18.138Z,34.31
2018-07-05T14:05:05.533Z,34.29
2018-07-05T14:07:52.907Z,34.39
2018-07-05T14:10:40.545Z,34.59
2018-07-05T14:13:27.927Z,34.73
2018-07-05T14:16:15.261Z,34.68
2018-07-05T14:19:02.761Z,34.55
2018-07-05T14:21:50.173Z,34.43
2018-07-05T14:24:37.445Z,34.41
2018-07-05T14:27:25.041Z,34.47
2018-07-05T14:30:12.432Z,34.49
2018-07-05T14:32:59.683Z,34.42
2018-07-05T14:35:47.085Z,34.38
2018-07-05T14:38:34.475Z,34.30
2018-07-05T14:41:22.237Z,34.23
2018-07-05T14:44:09.690Z,34.18
2018-07-05T14:46:57.273Z,34.26
2018-07-05T14:49:44.654Z,34.27
2018-07-05T14:52:32.180Z,34.17
2018-07-05T14:55:19.593Z,34.24
2018-07-05T14:58:07.013Z,34.38
2018-07-05T15:00:54.684Z,34.50
2018-07-05T15:03:42.257Z,34.28
2018-07-05T15:06:29.704Z,34.19
2018-07-05T15:09:17.109Z,34.09
2018-07-05T15:12:04.500Z,33.94
2018-07-05T15:14:51.845Z,33.79
2018-07-05T15:17:39.248Z,33.58
2018-07-05T15:20:26.713Z,33.34
2018-07-05T15:23:14.148Z,32.98
2018-07-05T15:26:01.659Z,32.72
2018-07-05T15:28:49.097Z,32.59
2018-07-05T15:31:36.418Z,32.64
2018-07-05T15:34:23.814Z,32.66
2018-07-05T15:37:11.217Z,32.79
2018-07-05T15:39:58.680Z,32.93
2018-07-05T15:42:46.152Z,32.87
2018-07-05T15:45:33.630Z,32.84
2018-07-05T15:48:21.113Z,32.62
2018-07-05T15:51:08.518Z,32.48
2018-07-05T15:53:55.990Z,32.36
2018-07-05T15:56:43.252Z,32.17
2018-07-05T15:59:30.800Z,31.99
2018-07-05T16:02:18.238Z,31.87
2018-07-05T16:05:05.573Z,31.72
2018-07-05T16:07:53.040Z,31.65
2018-07-05T16:10:40.403Z,31.55
2018-07-05T16:13:27.828Z,31.53
2018-07-05T16:16:15.245Z,31.56
2018-07-05T16:19:02.674Z,31.52
2018-07-05T16:21:50.065Z,31.46
2018-07-05T16:24:37.431Z,31.41
2018-07-05T16:27:25.313Z,31.39
2018-07-05T16:30:12.673Z,31.44
2018-07-05T16:33:00.092Z,31.47
2018-07-05T16:35:47.413Z,31.46
2018-07-05T16:38:34.699Z,31.45
2018-07-05T16:41:22.012Z,31.44
2018-07-05T16:44:09.356Z,31.43
2018-07-05T16:46:56.674Z,31.42
2018-07-05T16:49:44.038Z,31.42
2018-07-05T16:52:31.719Z,31.40
2018-07-05T16:55:19.050Z,31.34
2018-07-05T16:58:06.676Z,31.25
2018-07-05T17:00:54.129Z,31.13
2018-07-05T17:03:41.441Z,31.03
2018-07-05T17:06:28.861Z,30.89
2018-07-05T17:09:16.204Z,30.72
2018-07-05T17:12:03.605Z,30.63
2018-07-05T17:14:50.933Z,30.48
2018-07-05T17:17:38.437Z,30.33
2018-07-05T17:20:25.838Z,30.25
2018-07-05T17:23:13.434Z,30.20
2018-07-05T17:26:00.831Z,30.09
2018-07-05T17:28:48.216Z,29.98
2018-07-05T17:31:36.448Z,29.95
2018-07-05T17:34:24.049Z,29.89
2018-07-05T17:37:11.512Z,29.82
2018-07-05T17:39:58.992Z,29.72
2018-07-05T17:42:46.533Z,29.63
2018-07-05T17:45:34.041Z,29.56
2018-07-05T17:48:21.365Z,29.53
2018-07-05T17:51:08.704Z,29.50
2018-07-05T17:53:56.010Z,29.43
2018-07-05T17:56:43.299Z,29.38
2018-07-05T17:59:30.660Z,29.23
2018-07-05T18:02:18.169Z,29.08
2018-07-05T18:05:05.465Z,28.98
2018-07-05T18:07:52.768Z,28.86
2018-07-05T18:10:40.081Z,28.72
2018-07-05T18:13:27.489Z,28.66
2018-07-05T18:16:14.830Z,28.51
2018-07-05T18:19:02.582Z,28.35
2018-07-05T18:21:49.978Z,28.27
2018-07-05T18:24:37.308Z,28.19
2018-07-05T18:27:24.632Z,28.11
2018-07-05T18:30:12.115Z,27.93
2018-07-05T18:32:59.494Z,27.93
2018-07-05T18:35:46.889Z,27.88
2018-07-05T18:38:34.267Z,27.75
2018-07-05T18:41:21.811Z,27.53
2018-07-05T18:44:09.258Z,27.45
2018-07-05T18:46:56.621Z,27.28
2018-07-05T18:49:43.874Z,27.18
2018-07-05T18:52:31.450Z,27.17
2018-07-05T18:55:18.750Z,27.20
2018-07-05T18:58:06.497Z,27.17
2018-07-05T19:00:53.939Z,27.07
2018-07-05T19:03:41.348Z,26.97
2018-07-05T19:06:29.111Z,26.85
2018-07-05T19:09:16.526Z,26.65
2018-07-05T19:12:03.990Z,26.51
2018-07-05T19:14:51.426Z,26.40
2018-07-05T19:17:38.842Z,26.25
2018-07-05T19:20:26.593Z,26.05
2018-07-05T19:23:14.004Z,25.91
2018-07-05T19:26:01.429Z,25.86
2018-07-05T19:28:49.137Z,25.64
2018-07-05T19:31:36.624Z,25.37
2018-07-05T19:34:24.135Z,25.22
2018-07-05T19:37:11.676Z,24.99
2018-07-05T19:39:59.008Z,24.94
2018-07-05T19:42:46.301Z,25.02
2018-07-05T19:45:33.634Z,24.99
2018-07-05T19:48:21.261Z,24.86
2018-07-05T19:51:08.649Z,24.89
2018-07-05T19:53:56.290Z,24.77
2018-07-05T19:56:43.721Z,24.74
2018-07-05T19:59:31.054Z,24.72
2018-07-05T20:02:18.506Z,24.63
2018-07-05T20:05:06.028Z,24.61
2018-07-05T20:07:53.420Z,24.63
2018-07-05T20:10:40.739Z,24.69
2018-07-05T20:13:28.028Z,24.72
2018-07-05T20:16:15.426Z,24.71
2018-07-05T20:19:02.739Z,24.72
2018-07-05T20:21:50.289Z,24.75
2018-07-05T20:24:37.748Z,24.73
2018-07-05T20:27:25.433Z,24.71
2018-07-05T20:30:12.793Z,24.72
2018-07-05T20:33:00.385Z,24.70
2018-07-05T20:35:47.795Z,24.65
2018-07-05T20:38:35.279Z,24.58
2018-07-05T20:41:22.900Z,24.46
2018-07-05T20:44:10.402Z,24.43
2018-07-05T20:46:57.841Z,24.40
2018-07-05T20:49:45.260Z,24.33
2018-07-05T20:52:32.775Z,24.25
2018-07-05T20:55:20.106Z,24.16
2018-07-05T20:58:07.600Z,24.08
2018-07-05T21:00:55.018Z,23.98
2018-07-05T21:03:42.447Z,23.79
2018-07-05T21:06:29.969Z,23.52
2018-07-05T21:09:16.822Z,23.27
2018-07-05T21:12:03.518Z,22.80
2018-07-05T21:14:50.919Z,22.33
2018-07-05T21:17:37.724Z,21.94
2018-07-05T21:20:24.502Z,21.73
2018-07-05T21:23:11.285Z,21.57
2018-07-05T21:25:58.167Z,21.29
2018-07-05T21:28:45.186Z,20.89
2018-07-05T21:31:32.226Z,20.71
2018-07-05T21:34:19.061Z,20.49
2018-07-05T21:37:06.027Z,20.51
2018-07-05T21:39:52.997Z,20.61
2018-07-05T21:42:39.839Z,20.53
2018-07-05T21:45:32.637Z,20.54
2018-07-05T21:48:19.731Z,20.54
2018-07-05T21:51:06.620Z,20.47
2018-07-05T21:53:53.433Z,20.35
2018-07-05T21:56:40.124Z,20.33
2018-07-05T21:59:26.847Z,20.30
2018-07-05T22:02:13.620Z,20.28
2018-07-05T22:05:00.606Z,20.28
2018-07-05T22:07:47.374Z,20.31
2018-07-05T22:10:34.295Z,20.34
2018-07-05T22:13:21.276Z,20.19
2018-07-05T22:16:08.041Z,20.20
2018-07-05T22:19:00.091Z,20.29
2018-07-05T22:21:52.157Z,20.26
2018-07-05T22:24:44.046Z,20.24
2018-07-05T22:27:36.031Z,20.19
2018-07-05T22:30:28.044Z,20.25
2018-07-05T22:33:14.882Z,20.35
2018-07-05T22:36:01.744Z,20.34
2018-07-05T22:38:48.627Z,20.26
2018-07-05T22:41:35.617Z,20.17
2018-07-05T22:44:22.433Z,20.29
2018-07-05T22:47:09.174Z,20.27
2018-07-05T22:49:56.061Z,20.30
2018-07-05T22:52:42.793Z,20.35
2018-07-05T22:55:29.617Z,20.26
2018-07-05T22:58:16.409Z,20.09
2018-07-05T23:01:03.228Z,20.09
2018-07-05T23:03:49.929Z,20.13
2018-07-05T23:06:36.645Z,20.14
2018-07-05T23:09:23.382Z,20.09
2018-07-05T23:12:10.265Z,20.10
2018-07-05T23:14:57.136Z,20.04
2018-07-05T23:17:43.967Z,20.00
2018-07-05T23:20:30.866Z,19.93
2018-07-05T23:23:17.585Z,19.87
2018-07-05T23:26:05.181Z,19.72
2018-07-05T23:28:52.067Z,19.78
2018-07-05T23:31:39.017Z,19.73
2018-07-05T23:34:25.777Z,19.71
2018-07-05T23:37:12.707Z,19.65
2018-07-05T23:39:59.408Z,19.64
2018-07-05T23:42:46.406Z,19.61
2018-07-05T23:45:33.353Z,19.64
2018-07-05T23:48:21.340Z,19.58
2018-07-05T23:51:08.459Z,19.51
2018-07-05T23:53:55.370Z,19.57
2018-07-05T23:56:42.371Z,19.56
2018-07-05T23:59:29.406Z,19.43
